JST525 YSSY-YMML
Flight info
| Callsign | JST525 |
|---|---|
| Flight time | 1h 9m |
| Altitude | 34000 |
| Route | WOL DCT CB DCT BOYSE |
| Aircraft | A321/M-SDE3FGHIRWY/LB1 |
Departure
| Time | 2026-05-04 07:42 |
|---|---|
| Airport | Sydney Kingsford Smith International Airport (YSSY) |
Arrival
| Time | 2026-05-04 08:51 |
|---|---|
| Airport | Melbourne Airport (YMML) |
| Time | Latitude | Longitude | Altitude | Speed | Heading |
|---|---|---|---|---|---|
| 2026-05-04 06:31 | -33.93473 | 151.17919 | 30 ft | 0 kts | 100° |
| 2026-05-04 07:14 | -33.93461 | 151.17842 | 30 ft | 4 kts | 100° |
| 2026-05-04 07:14 | -33.93460 | 151.17835 | 30 ft | 1 kts | 100° |
| 2026-05-04 07:24 | -33.93460 | 151.17836 | 30 ft | 0 kts | 100° |
| 2026-05-04 07:24 | -33.93480 | 151.17847 | 30 ft | 7 kts | 172° |
| 2026-05-04 07:24 | -33.93536 | 151.17835 | 30 ft | 8 kts | 190° |
| 2026-05-04 07:24 | -33.93596 | 151.17822 | 30 ft | 9 kts | 190° |
| 2026-05-04 07:25 | -33.93658 | 151.17807 | 30 ft | 10 kts | 193° |
| 2026-05-04 07:26 | -33.94414 | 151.17911 | 30 ft | 14 kts | 171° |
| 2026-05-04 07:27 | -33.94499 | 151.17880 | 30 ft | 10 kts | 191° |
| 2026-05-04 07:27 | -33.94571 | 151.17894 | 30 ft | 11 kts | 167° |
| 2026-05-04 07:27 | -33.94645 | 151.17912 | 30 ft | 11 kts | 168° |
| 2026-05-04 07:27 | -33.94721 | 151.17931 | 30 ft | 11 kts | 168° |
| 2026-05-04 07:28 | -33.94803 | 151.17952 | 30 ft | 17 kts | 167° |
| 2026-05-04 07:28 | -33.95003 | 151.18004 | 30 ft | 28 kts | 168° |
| 2026-05-04 07:28 | -33.95098 | 151.18041 | 30 ft | 9 kts | 126° |
| 2026-05-04 07:28 | -33.95099 | 151.18114 | 30 ft | 9 kts | 77° |
| 2026-05-04 07:29 | -33.95086 | 151.18182 | 30 ft | 6 kts | 77° |
| 2026-05-04 07:29 | -33.95077 | 151.18235 | 30 ft | 7 kts | 78° |
| 2026-05-04 07:29 | -33.95064 | 151.18302 | 30 ft | 10 kts | 76° |
| 2026-05-04 07:29 | -33.95049 | 151.18384 | 30 ft | 9 kts | 78° |
| 2026-05-04 07:30 | -33.95038 | 151.18451 | 30 ft | 8 kts | 81° |
| 2026-05-04 07:30 | -33.95066 | 151.18501 | 30 ft | 8 kts | 159° |
| 2026-05-04 07:30 | -33.95131 | 151.18560 | 30 ft | 16 kts | 137° |
| 2026-05-04 07:30 | -33.95217 | 151.18654 | 30 ft | 16 kts | 140° |
| 2026-05-04 07:31 | -33.95318 | 151.18717 | 30 ft | 17 kts | 163° |
| 2026-05-04 07:31 | -33.95432 | 151.18748 | 30 ft | 17 kts | 167° |
| 2026-05-04 07:33 | -33.96574 | 151.19045 | 30 ft | 21 kts | 168° |
| 2026-05-04 07:33 | -33.96716 | 151.19073 | 30 ft | 20 kts | 184° |
| 2026-05-04 07:33 | -33.96848 | 151.19071 | 30 ft | 14 kts | 168° |
| 2026-05-04 07:33 | -33.96945 | 151.19095 | 30 ft | 10 kts | 168° |
| 2026-05-04 07:34 | -33.97002 | 151.19111 | 30 ft | 9 kts | 167° |
| 2026-05-04 07:34 | -33.97062 | 151.19127 | 30 ft | 9 kts | 167° |
| 2026-05-04 07:34 | -33.97083 | 151.19132 | 30 ft | 0 kts | 167° |
| 2026-05-04 07:35 | -33.97084 | 151.19133 | 30 ft | 1 kts | 167° |
| 2026-05-04 07:36 | -33.97104 | 151.19144 | 30 ft | 8 kts | 148° |
| 2026-05-04 07:36 | -33.97118 | 151.19164 | 30 ft | 0 kts | 120° |
| 2026-05-04 07:38 | -33.97113 | 151.19271 | 28 ft | 0 kts | 76° |
| 2026-05-04 07:38 | -33.97113 | 151.19272 | 28 ft | 0 kts | 76° |
| 2026-05-04 07:39 | -33.97112 | 151.19278 | 28 ft | 1 kts | 76° |
| 2026-05-04 07:40 | -33.97103 | 151.19320 | 30 ft | 11 kts | 76° |
| 2026-05-04 07:40 | -33.97046 | 151.19369 | 27 ft | 11 kts | 354° |
| 2026-05-04 07:40 | -33.97024 | 151.19363 | 25 ft | 0 kts | 347° |
| 2026-05-04 07:41 | -33.96941 | 151.19342 | 24 ft | 42 kts | 348° |
| 2026-05-04 07:41 | -33.96426 | 151.19210 | 27 ft | 107 kts | 348° |
| 2026-05-04 07:41 | -33.95511 | 151.18970 | 55 ft | 156 kts | 349° |
| 2026-05-04 07:42 | -33.94459 | 151.18729 | 748 ft | 149 kts | 359° |
| 2026-05-04 07:42 | -33.93537 | 151.19127 | 1493 ft | 145 kts | 43° |
| 2026-05-04 07:42 | -33.93144 | 151.20287 | 2015 ft | 168 kts | 83° |
| 2026-05-04 07:42 | -33.93456 | 151.21795 | 2313 ft | 198 kts | 105° |
| 2026-05-04 07:43 | -33.93942 | 151.23383 | 2978 ft | 203 kts | 98° |
| 2026-05-04 07:43 | -33.94001 | 151.25050 | 3735 ft | 199 kts | 75° |
| 2026-05-04 07:43 | -33.93858 | 151.26725 | 4458 ft | 205 kts | 79° |
| 2026-05-04 07:43 | -33.93760 | 151.28524 | 4875 ft | 227 kts | 81° |
| 2026-05-04 07:44 | -33.93669 | 151.30556 | 4986 ft | 262 kts | 82° |
| 2026-05-04 07:44 | -33.93576 | 151.32917 | 4984 ft | 298 kts | 83° |
| 2026-05-04 07:44 | -33.93503 | 151.35403 | 5810 ft | 295 kts | 84° |
| 2026-05-04 07:44 | -33.93442 | 151.37866 | 6857 ft | 295 kts | 83° |
| 2026-05-04 07:45 | -33.93380 | 151.40352 | 7771 ft | 299 kts | 84° |
| 2026-05-04 07:45 | -33.93312 | 151.42869 | 8642 ft | 303 kts | 84° |
| 2026-05-04 07:45 | -33.93458 | 151.45428 | 9471 ft | 312 kts | 102° |
| 2026-05-04 07:45 | -33.94383 | 151.47810 | 10218 ft | 320 kts | 128° |
| 2026-05-04 07:46 | -33.96056 | 151.49583 | 10903 ft | 325 kts | 152° |
| 2026-05-04 07:46 | -33.98246 | 151.50435 | 11113 ft | 342 kts | 180° |
| 2026-05-04 07:46 | -34.00615 | 151.50015 | 11276 ft | 352 kts | 207° |
| 2026-05-04 07:46 | -34.02632 | 151.48366 | 11628 ft | 352 kts | 230° |
| 2026-05-04 07:47 | -34.04327 | 151.46205 | 12214 ft | 357 kts | 232° |
| 2026-05-04 07:47 | -34.06034 | 151.43996 | 12889 ft | 361 kts | 232° |
| 2026-05-04 07:47 | -34.07749 | 151.41766 | 13562 ft | 365 kts | 232° |
| 2026-05-04 07:49 | -34.20221 | 151.25591 | 17857 ft | 389 kts | 232° |
| 2026-05-04 07:49 | -34.22068 | 151.23195 | 18439 ft | 392 kts | 232° |
| 2026-05-04 07:49 | -34.23932 | 151.20772 | 18980 ft | 394 kts | 233° |
| 2026-05-04 07:50 | -34.25803 | 151.18339 | 19546 ft | 396 kts | 233° |
| 2026-05-04 07:50 | -34.27682 | 151.15899 | 20120 ft | 397 kts | 233° |
| 2026-05-04 07:50 | -34.29571 | 151.13444 | 20683 ft | 399 kts | 233° |
| 2026-05-04 07:50 | -34.31464 | 151.10980 | 21207 ft | 400 kts | 233° |
| 2026-05-04 07:51 | -34.33362 | 151.08508 | 21708 ft | 402 kts | 233° |
| 2026-05-04 07:51 | -34.35269 | 151.06019 | 22150 ft | 404 kts | 233° |
| 2026-05-04 07:51 | -34.37181 | 151.03521 | 22589 ft | 405 kts | 234° |
| 2026-05-04 07:51 | -34.39097 | 151.01014 | 23008 ft | 407 kts | 234° |
| 2026-05-04 07:52 | -34.41022 | 150.98492 | 23433 ft | 408 kts | 234° |
| 2026-05-04 07:52 | -34.42950 | 150.95961 | 23790 ft | 410 kts | 234° |
| 2026-05-04 07:52 | -34.44890 | 150.93415 | 24113 ft | 412 kts | 234° |
| 2026-05-04 07:52 | -34.46844 | 150.90857 | 24432 ft | 414 kts | 234° |
| 2026-05-04 07:53 | -34.48806 | 150.88289 | 24747 ft | 416 kts | 234° |
| 2026-05-04 07:54 | -34.60843 | 150.68486 | 26817 ft | 420 kts | 247° |
| 2026-05-04 07:55 | -34.62313 | 150.65399 | 27083 ft | 423 kts | 247° |
| 2026-05-04 07:55 | -34.63784 | 150.62293 | 27380 ft | 425 kts | 246° |
| 2026-05-04 07:55 | -34.65237 | 150.59222 | 27670 ft | 426 kts | 247° |
| 2026-05-04 07:55 | -34.66718 | 150.56094 | 27930 ft | 429 kts | 247° |
| 2026-05-04 07:56 | -34.68228 | 150.52899 | 28185 ft | 431 kts | 247° |
| 2026-05-04 07:56 | -34.69706 | 150.49774 | 28464 ft | 433 kts | 247° |
| 2026-05-04 07:56 | -34.71209 | 150.46603 | 28726 ft | 435 kts | 247° |
| 2026-05-04 07:56 | -34.72721 | 150.43410 | 28974 ft | 436 kts | 247° |
| 2026-05-04 07:57 | -34.74236 | 150.40198 | 29226 ft | 439 kts | 247° |
| 2026-05-04 07:57 | -34.75756 | 150.36972 | 29481 ft | 441 kts | 247° |
| 2026-05-04 07:57 | -34.77278 | 150.33737 | 29741 ft | 443 kts | 247° |
| 2026-05-04 07:57 | -34.78810 | 150.30476 | 30003 ft | 444 kts | 248° |
| 2026-05-04 07:58 | -34.80345 | 150.27206 | 30249 ft | 445 kts | 247° |
| 2026-05-04 07:58 | -34.81879 | 150.23940 | 30559 ft | 444 kts | 247° |
| 2026-05-04 07:58 | -34.83407 | 150.20685 | 30947 ft | 441 kts | 248° |
| 2026-05-04 07:58 | -34.84923 | 150.17459 | 31328 ft | 438 kts | 248° |
| 2026-05-04 07:59 | -34.86429 | 150.14247 | 31780 ft | 434 kts | 248° |
| 2026-05-04 07:59 | -34.87916 | 150.11069 | 32211 ft | 430 kts | 249° |
| 2026-05-04 07:59 | -34.89387 | 150.07917 | 32598 ft | 426 kts | 249° |
| 2026-05-04 07:59 | -34.90844 | 150.04788 | 32968 ft | 424 kts | 249° |
| 2026-05-04 08:00 | -34.92295 | 150.01670 | 33311 ft | 421 kts | 249° |
| 2026-05-04 08:00 | -34.93735 | 149.98574 | 33680 ft | 419 kts | 249° |
| 2026-05-04 08:00 | -34.95172 | 149.95488 | 33963 ft | 419 kts | 249° |
| 2026-05-04 08:02 | -35.04661 | 149.75047 | 34058 ft | 414 kts | 249° |
| 2026-05-04 08:02 | -35.08246 | 149.68098 | 34087 ft | 423 kts | 243° |
| 2026-05-04 08:03 | -35.11220 | 149.63290 | 34079 ft | 424 kts | 242° |
| 2026-05-04 08:03 | -35.14771 | 149.57595 | 34094 ft | 424 kts | 242° |
| 2026-05-04 08:04 | -35.18337 | 149.51851 | 34084 ft | 424 kts | 242° |
| 2026-05-04 08:04 | -35.21884 | 149.46102 | 34079 ft | 423 kts | 243° |
| 2026-05-04 08:05 | -35.25420 | 149.40351 | 34090 ft | 423 kts | 243° |
| 2026-05-04 08:05 | -35.28958 | 149.34602 | 34082 ft | 423 kts | 243° |
| 2026-05-04 08:06 | -35.32543 | 149.28762 | 34059 ft | 434 kts | 243° |
| 2026-05-04 08:06 | -35.36195 | 149.22784 | 34057 ft | 442 kts | 242° |
| 2026-05-04 08:08 | -35.51024 | 148.98533 | 34091 ft | 444 kts | 243° |
| 2026-05-04 08:11 | -35.67581 | 148.71200 | 34096 ft | 442 kts | 243° |
| 2026-05-04 08:11 | -35.73083 | 148.62079 | 34092 ft | 443 kts | 243° |
| 2026-05-04 08:12 | -35.76758 | 148.55985 | 34087 ft | 444 kts | 243° |
| 2026-05-04 08:12 | -35.80435 | 148.49866 | 34093 ft | 444 kts | 243° |
| 2026-05-04 08:13 | -35.84107 | 148.43734 | 34088 ft | 444 kts | 243° |
| 2026-05-04 08:13 | -35.87777 | 148.37597 | 34075 ft | 445 kts | 243° |
| 2026-05-04 08:14 | -35.91452 | 148.31436 | 34084 ft | 446 kts | 243° |
| 2026-05-04 08:16 | -36.06228 | 148.06576 | 34065 ft | 452 kts | 243° |
| 2026-05-04 08:16 | -36.09958 | 148.00290 | 34066 ft | 454 kts | 243° |
| 2026-05-04 08:17 | -36.13691 | 147.93976 | 34067 ft | 454 kts | 243° |
| 2026-05-04 08:17 | -36.17412 | 147.87659 | 34092 ft | 455 kts | 243° |
| 2026-05-04 08:19 | -36.32276 | 147.62340 | 34101 ft | 456 kts | 243° |
| 2026-05-04 08:20 | -36.35999 | 147.55969 | 34082 ft | 456 kts | 243° |
| 2026-05-04 08:20 | -36.39744 | 147.49550 | 34089 ft | 457 kts | 243° |
| 2026-05-04 08:21 | -36.43442 | 147.43192 | 34077 ft | 457 kts | 242° |
| 2026-05-04 08:21 | -36.47171 | 147.36779 | 34087 ft | 458 kts | 243° |
| 2026-05-04 08:22 | -36.50899 | 147.30355 | 34080 ft | 458 kts | 243° |
| 2026-05-04 08:24 | -36.65748 | 147.04726 | 34050 ft | 454 kts | 243° |
| 2026-05-04 08:24 | -36.69421 | 146.98318 | 34039 ft | 455 kts | 243° |
| 2026-05-04 08:25 | -36.73099 | 146.91898 | 34034 ft | 455 kts | 243° |
| 2026-05-04 08:25 | -36.76766 | 146.85482 | 34035 ft | 455 kts | 243° |
| 2026-05-04 08:27 | -36.91184 | 146.60143 | 30212 ft | 450 kts | 244° |
| 2026-05-04 08:28 | -36.92997 | 146.56923 | 29176 ft | 456 kts | 244° |
| 2026-05-04 08:28 | -36.94833 | 146.53671 | 28170 ft | 460 kts | 243° |
| 2026-05-04 08:28 | -36.96664 | 146.50439 | 27197 ft | 463 kts | 243° |
| 2026-05-04 08:28 | -36.98539 | 146.47135 | 26066 ft | 469 kts | 242° |
| 2026-05-04 08:29 | -37.00434 | 146.43794 | 25426 ft | 473 kts | 242° |
| 2026-05-04 08:29 | -37.02341 | 146.40424 | 25167 ft | 476 kts | 242° |
| 2026-05-04 08:29 | -37.04254 | 146.37036 | 24975 ft | 477 kts | 242° |
| 2026-05-04 08:31 | -37.17608 | 146.13260 | 24706 ft | 472 kts | 242° |
| 2026-05-04 08:33 | -37.29946 | 145.91188 | 19888 ft | 378 kts | 240° |
| 2026-05-04 08:33 | -37.31413 | 145.88559 | 19391 ft | 358 kts | 240° |
| 2026-05-04 08:35 | -37.40540 | 145.72005 | 16598 ft | 336 kts | 240° |
| 2026-05-04 08:35 | -37.41870 | 145.69583 | 16073 ft | 336 kts | 239° |
| 2026-05-04 08:35 | -37.43201 | 145.67167 | 15565 ft | 335 kts | 239° |
| 2026-05-04 08:35 | -37.44527 | 145.64767 | 15056 ft | 333 kts | 239° |
| 2026-05-04 08:37 | -37.52633 | 145.50798 | 12009 ft | 326 kts | 238° |
| 2026-05-04 08:37 | -37.53972 | 145.48500 | 11497 ft | 324 kts | 238° |
| 2026-05-04 08:37 | -37.55299 | 145.46210 | 11006 ft | 323 kts | 239° |
| 2026-05-04 08:38 | -37.56622 | 145.43922 | 10503 ft | 321 kts | 239° |
| 2026-05-04 08:38 | -37.57904 | 145.41710 | 10006 ft | 304 kts | 239° |
| 2026-05-04 08:38 | -37.59123 | 145.39619 | 9493 ft | 289 kts | 240° |
| 2026-05-04 08:40 | -37.66455 | 145.26913 | 9019 ft | 248 kts | 241° |
| 2026-05-04 08:40 | -37.67451 | 145.25185 | 9014 ft | 240 kts | 240° |
| 2026-05-04 08:40 | -37.68426 | 145.23493 | 9029 ft | 238 kts | 240° |
| 2026-05-04 08:41 | -37.69391 | 145.21812 | 9011 ft | 232 kts | 240° |
| 2026-05-04 08:41 | -37.70321 | 145.20199 | 8801 ft | 224 kts | 241° |
| 2026-05-04 08:41 | -37.71235 | 145.18609 | 8444 ft | 223 kts | 241° |
| 2026-05-04 08:41 | -37.72142 | 145.17032 | 8079 ft | 222 kts | 241° |
| 2026-05-04 08:42 | -37.73044 | 145.15462 | 7701 ft | 220 kts | 241° |
| 2026-05-04 08:42 | -37.73941 | 145.13895 | 7334 ft | 220 kts | 242° |
| 2026-05-04 08:42 | -37.74835 | 145.12334 | 6994 ft | 219 kts | 242° |
| 2026-05-04 08:42 | -37.75725 | 145.10780 | 6649 ft | 218 kts | 242° |
| 2026-05-04 08:43 | -37.76612 | 145.09235 | 6315 ft | 217 kts | 242° |
| 2026-05-04 08:43 | -37.77496 | 145.07696 | 5967 ft | 216 kts | 242° |
| 2026-05-04 08:43 | -37.78377 | 145.06162 | 5603 ft | 216 kts | 242° |
| 2026-05-04 08:43 | -37.79256 | 145.04630 | 5274 ft | 214 kts | 242° |
| 2026-05-04 08:44 | -37.80112 | 145.03147 | 5128 ft | 203 kts | 243° |
| 2026-05-04 08:44 | -37.80902 | 145.01750 | 5046 ft | 185 kts | 248° |
| 2026-05-04 08:46 | -37.82775 | 144.92460 | 2801 ft | 159 kts | 268° |
| 2026-05-04 08:46 | -37.82942 | 144.91069 | 2540 ft | 159 kts | 269° |
| 2026-05-04 08:46 | -37.83107 | 144.89667 | 2534 ft | 163 kts | 269° |
| 2026-05-04 08:46 | -37.83221 | 144.88249 | 2516 ft | 159 kts | 282° |
| 2026-05-04 08:47 | -37.82447 | 144.86807 | 2527 ft | 156 kts | 328° |
| 2026-05-04 08:47 | -37.81730 | 144.86555 | 2531 ft | 160 kts | 347° |
| 2026-05-04 08:47 | -37.80670 | 144.86401 | 2527 ft | 148 kts | 344° |
| 2026-05-04 08:47 | -37.79670 | 144.86215 | 2539 ft | 144 kts | 343° |
| 2026-05-04 08:48 | -37.78692 | 144.86026 | 2339 ft | 140 kts | 344° |
| 2026-05-04 08:48 | -37.77719 | 144.85837 | 2154 ft | 141 kts | 345° |
| 2026-05-04 08:48 | -37.76756 | 144.85651 | 1958 ft | 140 kts | 345° |
| 2026-05-04 08:48 | -37.75801 | 144.85467 | 1782 ft | 138 kts | 346° |
| 2026-05-04 08:49 | -37.74848 | 144.85282 | 1590 ft | 139 kts | 345° |
| 2026-05-04 08:50 | -37.69009 | 144.84174 | 473 ft | 141 kts | 352° |
| 2026-05-04 08:50 | -37.68059 | 144.84001 | 386 ft | 125 kts | 354° |
| 2026-05-04 08:51 | -37.67326 | 144.83867 | 374 ft | 87 kts | 351° |
| 2026-05-04 08:51 | -37.67024 | 144.83840 | 385 ft | 23 kts | 9° |
| 2026-05-04 08:51 | -37.66885 | 144.83891 | 390 ft | 19 kts | 21° |
| 2026-05-04 08:51 | -37.66832 | 144.83917 | 391 ft | 5 kts | 22° |
| 2026-05-04 08:52 | -37.66821 | 144.83922 | 392 ft | 0 kts | 22° |
| 2026-05-04 08:52 | -37.66811 | 144.83928 | 392 ft | 8 kts | 22° |
| 2026-05-04 08:52 | -37.66738 | 144.83997 | 394 ft | 14 kts | 63° |
| 2026-05-04 08:52 | -37.66727 | 144.84119 | 393 ft | 15 kts | 114° |
| 2026-05-04 08:53 | -37.66819 | 144.84195 | 391 ft | 18 kts | 172° |
| 2026-05-04 08:54 | -37.67475 | 144.84396 | 377 ft | 3 kts | 84° |
| 2026-05-04 08:55 | -37.67473 | 144.84419 | 377 ft | 3 kts | 84° |
| 2026-05-04 08:55 | -37.67471 | 144.84440 | 378 ft | 2 kts | 81° |
| 2026-05-04 08:55 | -37.67468 | 144.84464 | 378 ft | 6 kts | 81° |
| 2026-05-04 08:55 | -37.67452 | 144.84586 | 380 ft | 17 kts | 80° |
| 2026-05-04 08:57 | -37.67523 | 144.84741 | 379 ft | 0 kts | 171° |